Terminal Aerodrome Forecast
Issued by NWS

Home | Current Version | Previous Version | Text Only | Print | Product List | Glossary On
Versions: 1 2 3 4 5 6 7 8 9 10 11 12 13 14 15 16 17 18 19 20
000
FTUS41 KBTV 261737
TAFPBG
TAF
KPBG 261737Z 2618/2718 13009KT P6SM BKN100 OVC150
     FM270000 15009KT P6SM OVC060
     FM270400 16009G18KT 4SM -RA BR OVC035
     FM270700 16009G18KT 3SM -RA BR OVC025
     FM271400 16009G18KT 3SM -RA BR OVC015=

USA.gov is the U.S. government's official web portal to all federal, state and local government web resources and services.